createdAt,value
2019-02-27T00:00:30.690Z,19.35
2019-02-27T00:03:11.882Z,19.98
2019-02-27T00:05:51.681Z,19.80
2019-02-27T00:08:31.223Z,20.82
2019-02-27T00:11:12.391Z,20.45
2019-02-27T00:13:52.010Z,20.00
2019-02-27T00:16:33.540Z,20.52
2019-02-27T00:19:12.975Z,19.20
2019-02-27T00:21:52.205Z,20.10
2019-02-27T00:24:31.685Z,20.48
2019-02-27T00:27:14.601Z,18.27
2019-02-27T00:29:54.821Z,19.95
2019-02-27T00:32:33.980Z,19.15
2019-02-27T00:35:14.201Z,19.75
2019-02-27T00:37:55.491Z,19.48
2019-02-27T00:40:38.538Z,19.77
2019-02-27T00:43:16.529Z,20.68
2019-02-27T00:45:56.472Z,20.55
2019-02-27T00:48:37.550Z,21.15
2019-02-27T00:51:18.370Z,21.42
2019-02-27T00:53:58.441Z,20.10
2019-02-27T00:56:38.364Z,20.20
2019-02-27T00:59:18.769Z,20.37
2019-02-27T01:01:59.439Z,20.40
2019-02-27T01:04:38.708Z,20.30
2019-02-27T01:07:20.672Z,20.65
2019-02-27T01:10:00.333Z,20.32
2019-02-27T01:12:40.286Z,19.55
2019-02-27T01:15:19.592Z,19.95
2019-02-27T01:17:59.734Z,20.72
2019-02-27T01:20:40.147Z,21.07
2019-02-27T01:23:19.468Z,20.27
2019-02-27T01:25:59.426Z,20.25
2019-02-27T01:28:39.294Z,22.32
2019-02-27T01:31:19.179Z,21.00
2019-02-27T01:33:58.576Z,21.00
2019-02-27T01:36:37.998Z,20.17
2019-02-27T01:39:18.933Z,19.77
2019-02-27T01:41:58.604Z,20.72
2019-02-27T01:44:38.969Z,22.02
2019-02-27T01:47:19.925Z,21.42
2019-02-27T01:50:00.492Z,19.85
2019-02-27T01:52:39.700Z,20.70
2019-02-27T01:55:21.686Z,19.82
2019-02-27T01:58:00.011Z,20.97
2019-02-27T02:00:40.095Z,20.45
2019-02-27T02:03:20.001Z,20.88
2019-02-27T02:06:00.402Z,19.35
2019-02-27T02:08:39.621Z,19.97
2019-02-27T02:11:19.770Z,17.05
2019-02-27T02:14:44.362Z,18.67
2019-02-27T02:18:51.296Z,18.52
2019-02-27T02:22:34.053Z,18.48
2019-02-27T02:25:40.322Z,18.92
2019-02-27T02:29:26.246Z,20.02
2019-02-27T02:32:30.380Z,20.08
2019-02-27T02:36:12.984Z,21.52
2019-02-27T02:39:39.587Z,21.97
2019-02-27T02:43:03.464Z,20.13
2019-02-27T02:46:12.378Z,19.40
2019-02-27T02:49:44.660Z,18.23
2019-02-27T02:53:17.246Z,19.23
2019-02-27T02:56:43.433Z,19.12
2019-02-27T03:00:01.266Z,19.37
2019-02-27T03:03:37.274Z,19.52
2019-02-27T03:07:14.522Z,19.57
2019-02-27T03:10:18.344Z,18.95
2019-02-27T03:13:43.602Z,19.17
2019-02-27T03:16:52.632Z,19.32
2019-02-27T03:20:17.633Z,19.20
2019-02-27T03:23:52.511Z,19.63
2019-02-27T03:26:59.602Z,19.80
2019-02-27T03:30:36.477Z,20.52
2019-02-27T03:34:32.875Z,19.90
2019-02-27T03:38:25.903Z,19.17
2019-02-27T03:41:22.575Z,20.43
2019-02-27T03:44:31.793Z,19.98
2019-02-27T03:48:12.494Z,19.48
2019-02-27T03:51:37.521Z,19.83
2019-02-27T03:54:41.105Z,18.25
2019-02-27T03:58:05.473Z,20.17
2019-02-27T04:01:30.595Z,19.40
2019-02-27T04:04:34.774Z,19.77
2019-02-27T04:08:33.247Z,20.10
2019-02-27T04:11:12.452Z,19.33
2019-02-27T04:13:53.323Z,19.47
2019-02-27T04:16:33.016Z,20.33
2019-02-27T04:19:13.873Z,20.27
2019-02-27T04:21:53.041Z,19.93
2019-02-27T04:24:32.172Z,18.93
2019-02-27T04:27:11.389Z,19.80
2019-02-27T04:29:50.542Z,20.03
2019-02-27T04:32:30.199Z,19.55
2019-02-27T04:35:09.740Z,18.50
2019-02-27T04:37:54.114Z,19.67
2019-02-27T04:40:30.409Z,20.23
2019-02-27T04:43:10.101Z,20.45
2019-02-27T04:45:49.955Z,19.87
2019-02-27T04:48:29.924Z,18.85
2019-02-27T04:51:10.095Z,19.52
2019-02-27T04:53:50.632Z,19.77
2019-02-27T04:56:29.941Z,18.77
2019-02-27T04:59:09.024Z,19.25
2019-02-27T05:01:48.660Z,20.35
2019-02-27T05:04:28.030Z,19.55
2019-02-27T05:07:07.419Z,19.40
2019-02-27T05:09:46.540Z,17.93
2019-02-27T05:12:25.979Z,18.75
2019-02-27T05:15:06.029Z,20.20
2019-02-27T05:17:45.893Z,17.90
2019-02-27T05:20:25.111Z,19.62
2019-02-27T05:23:04.549Z,19.63
2019-02-27T05:25:43.677Z,19.00
2019-02-27T05:28:23.125Z,19.12
2019-02-27T05:31:02.804Z,17.98
2019-02-27T05:33:43.239Z,19.33
2019-02-27T05:36:24.409Z,18.85
2019-02-27T05:39:06.273Z,17.70
2019-02-27T05:41:45.435Z,19.00
2019-02-27T05:44:24.672Z,20.57
2019-02-27T05:47:03.890Z,19.00
2019-02-27T05:49:43.140Z,19.27
2019-02-27T05:52:22.400Z,19.67
2019-02-27T05:55:06.039Z,20.10
2019-02-27T05:57:42.710Z,21.60
2019-02-27T06:00:22.413Z,20.93
2019-02-27T06:03:03.234Z,21.00
2019-02-27T06:05:49.400Z,20.60
2019-02-27T06:08:24.089Z,21.48
2019-02-27T06:11:04.558Z,18.83
2019-02-27T06:13:44.995Z,21.15
2019-02-27T06:16:24.639Z,21.70
2019-02-27T06:19:03.870Z,20.07
2019-02-27T06:21:43.214Z,20.37
2019-02-27T06:24:22.495Z,20.13
2019-02-27T06:27:06.410Z,20.77
2019-02-27T06:29:46.056Z,19.30
2019-02-27T06:32:27.381Z,21.03
2019-02-27T06:35:07.878Z,20.70
2019-02-27T06:37:50.448Z,20.10
2019-02-27T06:40:28.658Z,21.73
2019-02-27T06:43:09.047Z,21.12
2019-02-27T06:45:48.297Z,20.77
2019-02-27T06:48:27.750Z,21.17
2019-02-27T06:51:07.772Z,20.20
2019-02-27T06:53:47.752Z,20.90
2019-02-27T06:56:26.888Z,21.63
2019-02-27T06:59:08.892Z,20.62
2019-02-27T07:01:54.533Z,19.57
2019-02-27T07:04:39.201Z,19.73
2019-02-27T07:07:15.695Z,20.08
2019-02-27T07:09:54.919Z,18.75
2019-02-27T07:12:34.800Z,19.48
2019-02-27T07:15:19.492Z,19.50
2019-02-27T07:17:58.747Z,20.27
2019-02-27T07:20:38.239Z,18.77
2019-02-27T07:23:22.741Z,17.05
2019-02-27T07:25:58.460Z,18.62
2019-02-27T07:28:38.564Z,19.30
2019-02-27T07:31:18.521Z,18.52
2019-02-27T07:33:58.892Z,18.92
2019-02-27T07:36:40.078Z,19.48
2019-02-27T07:39:19.742Z,18.67
2019-02-27T07:41:59.745Z,17.52
2019-02-27T07:44:44.089Z,18.45
2019-02-27T07:47:23.987Z,17.90
2019-02-27T07:50:06.338Z,17.90
2019-02-27T07:52:45.658Z,17.37
2019-02-27T07:55:28.865Z,17.42
2019-02-27T07:58:08.612Z,17.50
2019-02-27T08:00:49.826Z,17.87
2019-02-27T08:03:29.571Z,19.00
2019-02-27T08:06:09.038Z,18.13
2019-02-27T08:08:48.892Z,18.30
2019-02-27T08:11:28.423Z,18.67
2019-02-27T08:14:08.218Z,16.47
2019-02-27T08:16:49.313Z,18.70
2019-02-27T08:19:30.617Z,18.80
2019-02-27T08:22:11.114Z,18.73
2019-02-27T08:24:50.873Z,20.27
2019-02-27T08:27:30.527Z,21.10
2019-02-27T08:30:15.668Z,20.67
2019-02-27T08:32:55.249Z,18.13
2019-02-27T08:35:35.005Z,21.53
2019-02-27T08:38:14.521Z,21.00
2019-02-27T08:40:57.559Z,20.27
2019-02-27T08:43:35.894Z,19.27
2019-02-27T08:46:15.877Z,20.03
2019-02-27T08:48:55.413Z,20.43
2019-02-27T08:51:35.210Z,20.50
2019-02-27T08:54:14.828Z,20.43
2019-02-27T08:56:54.623Z,21.90
2019-02-27T08:59:37.034Z,20.20
2019-02-27T09:02:16.410Z,19.90
2019-02-27T09:04:56.137Z,22.60
2019-02-27T09:07:36.367Z,21.27
2019-02-27T09:10:16.910Z,20.27
2019-02-27T09:13:04.816Z,22.27
2019-02-27T09:15:37.931Z,21.77
2019-02-27T09:18:17.939Z,21.07
2019-02-27T09:20:57.464Z,21.57
2019-02-27T09:23:37.108Z,21.23
2019-02-27T09:26:16.632Z,22.03
2019-02-27T09:28:56.311Z,23.67
2019-02-27T09:31:37.751Z,24.20
2019-02-27T09:34:19.197Z,23.63
2019-02-27T09:36:58.742Z,27.27
2019-02-27T09:39:40.841Z,23.80
2019-02-27T09:42:21.185Z,21.40
2019-02-27T09:45:00.775Z,24.43
2019-02-27T09:47:40.371Z,22.93
2019-02-27T09:50:35.518Z,23.07
2019-02-27T09:53:15.353Z,22.17
2019-02-27T09:55:59.991Z,23.33
2019-02-27T09:58:45.300Z,22.83
2019-02-27T10:01:21.320Z,21.93
2019-02-27T10:04:01.246Z,23.93
2019-02-27T10:06:42.851Z,24.43
2019-02-27T10:09:24.713Z,27.50
2019-02-27T10:12:04.241Z,22.83
2019-02-27T10:14:43.954Z,22.33
2019-02-27T10:17:24.218Z,23.50
2019-02-27T10:20:03.948Z,22.73
2019-02-27T10:22:47.297Z,22.73
2019-02-27T10:25:28.227Z,24.03
2019-02-27T10:28:08.162Z,23.67
2019-02-27T10:30:50.102Z,22.20
2019-02-27T10:33:29.543Z,23.23
2019-02-27T10:36:10.695Z,23.30
2019-02-27T10:38:50.555Z,22.80
2019-02-27T10:41:33.226Z,23.50
2019-02-27T10:44:13.051Z,25.83
2019-02-27T10:46:52.744Z,24.43
2019-02-27T10:49:32.416Z,25.17
2019-02-27T10:52:12.029Z,26.27
2019-02-27T10:54:51.986Z,23.93
2019-02-27T10:57:31.915Z,23.87
2019-02-27T11:00:28.546Z,24.07
2019-02-27T11:03:09.881Z,23.47
2019-02-27T11:05:52.285Z,22.47
2019-02-27T11:08:31.114Z,20.97
2019-02-27T11:11:13.157Z,22.30
2019-02-27T11:13:55.282Z,21.27
2019-02-27T11:16:34.185Z,17.57
2019-02-27T11:19:14.141Z,16.63
2019-02-27T11:21:58.485Z,15.87
2019-02-27T11:24:38.942Z,15.67
2019-02-27T11:27:18.753Z,16.53
2019-02-27T11:30:01.261Z,16.07
2019-02-27T11:32:39.986Z,14.90
2019-02-27T11:35:22.050Z,14.53
2019-02-27T11:38:01.107Z,15.03
2019-02-27T11:40:42.655Z,14.70
2019-02-27T11:43:21.967Z,12.40
2019-02-27T11:46:01.628Z,12.53
2019-02-27T11:48:41.409Z,11.13
2019-02-27T11:51:20.947Z,12.63
2019-02-27T11:54:04.289Z,11.33
2019-02-27T11:56:43.980Z,12.57
2019-02-27T11:59:23.845Z,10.53
2019-02-27T12:02:03.433Z,11.67
2019-02-27T12:04:43.193Z,11.03
2019-02-27T12:07:23.008Z,9.97
2019-02-27T12:10:02.710Z,9.43
2019-02-27T12:12:43.232Z,10.03
2019-02-27T12:15:23.283Z,9.60
2019-02-27T12:18:02.820Z,10.67
2019-02-27T12:20:42.360Z,9.90
2019-02-27T12:23:23.193Z,10.60
2019-02-27T12:26:03.208Z,10.23
2019-02-27T12:28:42.888Z,11.40
2019-02-27T12:31:23.228Z,10.87
2019-02-27T12:34:03.948Z,10.67
2019-02-27T12:36:44.062Z,10.10
2019-02-27T12:39:23.807Z,10.33
2019-02-27T12:42:04.144Z,9.10
2019-02-27T12:44:47.670Z,10.00
2019-02-27T12:47:27.621Z,9.33
2019-02-27T12:50:09.522Z,9.63
2019-02-27T12:52:49.320Z,8.77
2019-02-27T12:55:28.944Z,9.03
2019-02-27T12:58:09.747Z,8.80
2019-02-27T13:00:50.425Z,8.90
2019-02-27T13:03:29.915Z,9.33
2019-02-27T13:06:09.910Z,9.30
2019-02-27T13:08:52.652Z,10.20
2019-02-27T13:11:30.667Z,9.53
2019-02-27T13:14:10.334Z,11.50
2019-02-27T13:16:50.276Z,9.57
2019-02-27T13:19:31.955Z,10.37
2019-02-27T13:22:11.489Z,12.20
2019-02-27T13:24:51.534Z,11.50
2019-02-27T13:27:31.030Z,24.10
2019-02-27T13:30:13.692Z,11.13
2019-02-27T13:32:53.689Z,10.63
2019-02-27T13:35:33.406Z,9.23
2019-02-27T13:38:17.475Z,9.87
2019-02-27T13:40:57.305Z,10.40
2019-02-27T13:43:37.143Z,9.53
2019-02-27T13:46:17.143Z,8.50
2019-02-27T13:48:56.622Z,9.47
2019-02-27T13:51:38.401Z,7.53
2019-02-27T13:54:17.626Z,8.20
2019-02-27T13:56:58.525Z,15.00
2019-02-27T13:59:42.173Z,8.77
2019-02-27T14:02:27.869Z,7.63
2019-02-27T14:05:07.738Z,8.83
2019-02-27T14:07:47.664Z,10.87
2019-02-27T14:10:28.538Z,7.30
2019-02-27T14:13:09.702Z,8.17
2019-02-27T14:15:50.750Z,6.93
2019-02-27T14:18:30.346Z,6.83
2019-02-27T14:21:10.580Z,6.50
2019-02-27T14:23:53.778Z,7.30
2019-02-27T14:26:33.197Z,6.77
2019-02-27T14:29:12.854Z,7.07
2019-02-27T14:31:52.359Z,5.73
2019-02-27T14:34:32.048Z,5.97
2019-02-27T14:37:16.231Z,6.13
2019-02-27T14:39:54.006Z,5.27
2019-02-27T14:42:33.449Z,5.77
2019-02-27T14:45:16.380Z,5.27
2019-02-27T14:47:55.849Z,4.90
2019-02-27T14:50:35.865Z,6.00
2019-02-27T14:53:16.623Z,5.00
2019-02-27T14:55:56.688Z,5.47
2019-02-27T14:58:36.072Z,5.50
2019-02-27T15:01:17.387Z,5.67
2019-02-27T15:03:56.878Z,5.40
2019-02-27T15:06:36.462Z,5.60
2019-02-27T15:09:19.775Z,4.87
2019-02-27T15:11:59.570Z,5.50
2019-02-27T15:14:40.308Z,5.60
2019-02-27T15:17:20.452Z,5.43
2019-02-27T15:20:01.840Z,5.07
2019-02-27T15:22:43.304Z,5.07
2019-02-27T15:25:24.495Z,4.27
2019-02-27T15:28:07.334Z,4.37
2019-02-27T15:30:47.381Z,4.07
2019-02-27T15:33:27.815Z,4.80
2019-02-27T15:36:07.474Z,4.83
2019-02-27T15:38:47.414Z,4.93
2019-02-27T15:41:26.739Z,4.03
2019-02-27T15:44:06.527Z,4.57
2019-02-27T15:46:45.914Z,4.20
2019-02-27T15:49:25.756Z,3.70
2019-02-27T15:52:06.981Z,4.50
2019-02-27T15:54:49.563Z,11.23
2019-02-27T15:57:30.540Z,7.20
2019-02-27T16:00:17.740Z,5.30
2019-02-27T16:02:54.348Z,5.90
2019-02-27T16:05:35.610Z,5.40
2019-02-27T16:08:15.416Z,4.80
2019-02-27T16:10:55.383Z,5.53
2019-02-27T16:13:35.412Z,5.43
2019-02-27T16:16:15.567Z,6.60
2019-02-27T16:18:54.996Z,6.53
2019-02-27T16:21:34.570Z,6.67
2019-02-27T16:24:17.156Z,7.10
2019-02-27T16:26:57.983Z,6.47
2019-02-27T16:29:38.095Z,6.20
2019-02-27T16:32:17.876Z,5.87
2019-02-27T16:34:57.316Z,9.27
2019-02-27T16:37:36.958Z,6.03
2019-02-27T16:40:18.644Z,6.03
2019-02-27T16:42:59.799Z,5.97
2019-02-27T16:45:39.646Z,7.87
2019-02-27T16:48:21.780Z,6.65
2019-02-27T16:51:01.107Z,7.33
2019-02-27T16:53:43.081Z,7.40
2019-02-27T16:56:22.541Z,7.05
2019-02-27T16:59:07.681Z,8.43
2019-02-27T17:01:45.212Z,7.03
2019-02-27T17:04:25.383Z,9.00
2019-02-27T17:07:05.498Z,8.40
2019-02-27T17:09:45.554Z,7.50
2019-02-27T17:12:25.320Z,8.50
2019-02-27T17:15:05.450Z,8.13
2019-02-27T17:17:45.291Z,8.65
2019-02-27T17:20:27.211Z,9.15
2019-02-27T17:23:10.878Z,9.30
2019-02-27T17:25:50.191Z,9.23
2019-02-27T17:28:29.990Z,8.98
2019-02-27T17:31:12.317Z,8.90
2019-02-27T17:33:54.091Z,11.48
2019-02-27T17:36:34.248Z,9.55
2019-02-27T17:39:14.193Z,10.63
2019-02-27T17:41:54.312Z,10.53
2019-02-27T17:44:35.334Z,10.63
2019-02-27T17:47:15.562Z,10.90
2019-02-27T17:49:57.431Z,12.40
2019-02-27T17:52:38.502Z,13.75
2019-02-27T17:55:18.638Z,13.48
2019-02-27T17:57:59.985Z,13.43
2019-02-27T18:00:41.648Z,14.40
2019-02-27T18:03:21.682Z,17.45
2019-02-27T18:06:01.636Z,14.98
2019-02-27T18:08:42.553Z,16.37
2019-02-27T18:11:23.053Z,15.45
2019-02-27T18:14:02.885Z,18.50
2019-02-27T18:16:50.121Z,17.85
2019-02-27T18:19:30.355Z,17.37
2019-02-27T18:22:14.722Z,19.80
2019-02-27T18:24:55.046Z,17.52
2019-02-27T18:27:34.985Z,12.03
2019-02-27T18:30:20.209Z,11.73
2019-02-27T18:33:01.175Z,11.38
2019-02-27T18:35:41.569Z,10.88
2019-02-27T18:38:27.476Z,12.83
2019-02-27T18:41:03.195Z,10.65
2019-02-27T18:43:43.138Z,10.55
2019-02-27T18:46:24.695Z,10.68
2019-02-27T18:49:04.747Z,10.72
2019-02-27T18:51:46.874Z,12.65
2019-02-27T18:54:29.534Z,11.10
2019-02-27T18:57:11.899Z,11.05
2019-02-27T18:59:51.065Z,12.30
2019-02-27T19:02:30.942Z,12.82
2019-02-27T19:05:13.088Z,11.25
2019-02-27T19:07:54.829Z,10.80
2019-02-27T19:10:34.853Z,10.70
2019-02-27T19:13:14.876Z,10.78
2019-02-27T19:15:54.833Z,10.48
2019-02-27T19:18:34.558Z,11.57
2019-02-27T19:21:15.793Z,11.45
2019-02-27T19:23:55.879Z,11.63
2019-02-27T19:26:36.301Z,11.05
2019-02-27T19:29:16.590Z,11.35
2019-02-27T19:31:56.760Z,11.90
2019-02-27T19:34:36.767Z,11.70
2019-02-27T19:37:16.510Z,11.43
2019-02-27T19:39:57.088Z,11.93
2019-02-27T19:42:37.144Z,12.10
2019-02-27T19:45:17.226Z,13.15
2019-02-27T19:47:57.474Z,13.22
2019-02-27T19:50:37.605Z,13.97
2019-02-27T19:53:17.387Z,13.30
2019-02-27T19:56:00.650Z,13.03
2019-02-27T19:58:38.722Z,13.22
2019-02-27T20:01:18.908Z,12.75
2019-02-27T20:03:58.607Z,12.98
2019-02-27T20:06:38.541Z,12.75
2019-02-27T20:09:20.147Z,12.95
2019-02-27T20:12:00.287Z,12.50
2019-02-27T20:14:40.102Z,12.78
2019-02-27T20:17:39.687Z,13.43
2019-02-27T20:20:21.830Z,12.98
2019-02-27T20:23:03.907Z,13.22
2019-02-27T20:25:44.500Z,13.40
2019-02-27T20:28:25.763Z,13.85
2019-02-27T20:31:09.273Z,13.22
2019-02-27T20:33:55.061Z,12.78
2019-02-27T20:36:35.336Z,12.35
2019-02-27T20:39:18.155Z,13.28
2019-02-27T20:41:59.176Z,13.83
2019-02-27T20:44:39.148Z,13.72
2019-02-27T20:47:21.831Z,12.53
2019-02-27T20:50:02.105Z,12.93
2019-02-27T20:52:43.008Z,13.08
2019-02-27T20:55:22.791Z,13.45
2019-02-27T20:58:02.952Z,12.70
2019-02-27T21:00:43.091Z,12.55
2019-02-27T21:03:26.735Z,13.00
2019-02-27T21:06:05.149Z,13.38
2019-02-27T21:08:45.831Z,12.68
2019-02-27T21:11:29.538Z,13.03
2019-02-27T21:14:15.647Z,13.60
2019-02-27T21:16:56.439Z,13.32
2019-02-27T21:19:37.240Z,13.35
2019-02-27T21:22:18.241Z,12.73
2019-02-27T21:24:58.412Z,13.03
2019-02-27T21:27:38.287Z,12.13
2019-02-27T21:30:19.135Z,13.75
2019-02-27T21:32:59.370Z,13.45
2019-02-27T21:35:39.474Z,13.15
2019-02-27T21:38:20.252Z,13.25
2019-02-27T21:41:00.469Z,12.98
2019-02-27T21:43:40.165Z,13.13
2019-02-27T21:46:20.407Z,13.78
2019-02-27T21:49:00.290Z,14.98
2019-02-27T21:51:40.640Z,15.70
2019-02-27T21:54:23.104Z,14.63
2019-02-27T21:57:04.173Z,15.13
2019-02-27T21:59:45.882Z,14.07
2019-02-27T22:02:27.231Z,13.45
2019-02-27T22:05:09.118Z,12.58
2019-02-27T22:07:49.131Z,12.50
2019-02-27T22:10:29.033Z,11.90
2019-02-27T22:13:10.537Z,12.47
2019-02-27T22:15:55.879Z,12.63
2019-02-27T22:18:34.358Z,13.68
2019-02-27T22:21:17.477Z,13.15
2019-02-27T22:23:57.170Z,13.18
2019-02-27T22:26:37.582Z,13.72
2019-02-27T22:29:18.675Z,13.10
2019-02-27T22:31:58.563Z,13.68
2019-02-27T22:34:39.039Z,13.32
2019-02-27T22:37:18.888Z,13.30
2019-02-27T22:40:06.302Z,14.50
2019-02-27T22:42:45.513Z,13.38
2019-02-27T22:45:25.195Z,13.45
2019-02-27T22:48:05.093Z,13.18
2019-02-27T22:50:45.319Z,14.03
2019-02-27T22:53:26.189Z,13.40
2019-02-27T22:56:07.645Z,13.70
2019-02-27T22:58:51.420Z,12.88
2019-02-27T23:01:49.325Z,13.20
2019-02-27T23:04:30.032Z,13.65
2019-02-27T23:07:09.943Z,14.00
2019-02-27T23:09:49.768Z,13.15
2019-02-27T23:12:31.180Z,12.70
2019-02-27T23:15:12.700Z,13.72
2019-02-27T23:17:52.111Z,14.35
2019-02-27T23:20:31.719Z,12.68
2019-02-27T23:23:11.930Z,13.80
2019-02-27T23:25:51.977Z,13.93
2019-02-27T23:28:52.244Z,14.03
2019-02-27T23:31:35.762Z,13.80
2019-02-27T23:34:15.104Z,12.60
2019-02-27T23:36:55.830Z,13.43
2019-02-27T23:39:39.552Z,13.88
2019-02-27T23:42:17.401Z,13.83
2019-02-27T23:44:57.113Z,13.98
2019-02-27T23:47:36.750Z,13.90
2019-02-27T23:50:16.674Z,13.45
2019-02-27T23:52:56.011Z,13.22
2019-02-27T23:55:35.393Z,12.95
2019-02-27T23:58:14.863Z,12.85
